Time;durP1;ratioP1;P1;durP2;ratioP2;P2;SDS_P1;SDS_P2;PMS_P1;PMS_P2;Temp;Humidity;BMP_temperature;BMP_pressure;BME280_temperature;BME280_humidity;BME280_pressure;Samples;Min_cycle;Max_cycle;Signal;HPM_P1;HPM_P2
2022/02/13 00:01:01;;;;;;;167.05;158.10;;;;;;;-1.45;100.00;101347.06;5057443;28;20052;-83
2022/02/13 00:03:34;;;;;;;188.55;178.45;;;;;;;-1.44;100.00;101343.41;5069186;28;20053;-83
2022/02/13 00:06:09;;;;;;;199.63;188.85;;;;;;;-1.31;100.00;101340.91;5058351;28;20060;-82
2022/02/13 00:08:42;;;;;;;221.68;209.85;;;;;;;-1.23;100.00;101335.50;5053936;28;20054;-83
2022/02/13 00:11:16;;;;;;;216.30;204.70;;;;;;;-1.28;100.00;101321.84;5065330;28;20056;-82
2022/02/13 00:13:50;;;;;;;224.50;212.48;;;;;;;-1.18;100.00;101323.41;5055959;28;20436;-83
2022/02/13 00:16:18;;;;;;;224.80;212.80;;;;;;;-1.17;100.00;101327.72;5058189;28;20052;-83
2022/02/13 00:18:51;;;;;;;228.50;216.30;;;;;;;-1.19;100.00;101319.91;5055779;28;20045;-83
2022/02/13 00:21:26;;;;;;;224.32;212.27;;;;;;;-1.09;100.00;101311.59;5061811;28;20037;-83
2022/02/13 00:23:54;;;;;;;241.50;228.60;;;;;;;-1.09;100.00;101303.56;5057110;28;20453;-83
2022/02/13 00:26:22;;;;;;;225.80;213.77;;;;;;;-1.06;100.00;101298.72;5066510;28;20040;-82
2022/02/13 00:28:55;;;;;;;225.02;213.02;;;;;;;-1.10;100.00;101297.41;5058404;28;20048;-83
2022/02/13 00:31:28;;;;;;;217.85;206.30;;;;;;;-1.10;100.00;101281.41;5057698;28;20053;-83
2022/02/13 00:33:56;;;;;;;210.63;199.40;;;;;;;-1.12;100.00;101274.59;5057161;28;20051;-82
2022/02/13 00:36:31;;;;;;;198.02;187.48;;;;;;;-1.12;100.00;101287.94;5064331;28;20048;-83
2022/02/13 00:39:06;;;;;;;183.50;173.75;;;;;;;-1.20;100.00;101283.53;5061268;28;20448;-82
2022/02/13 00:41:34;;;;;;;164.63;155.85;;;;;;;-1.22;100.00;101285.56;5056022;28;20075;-82
2022/02/13 00:44:08;;;;;;;170.45;161.27;;;;;;;-1.27;100.00;101280.78;5053767;28;20045;-82
2022/02/13 00:46:41;;;;;;;187.20;177.10;;;;;;;-1.28;100.00;101281.78;5056746;28;20416;-82
2022/02/13 00:49:09;;;;;;;184.50;174.60;;;;;;;-1.29;100.00;101280.13;5059230;28;20051;-82
2022/02/13 00:51:44;;;;;;;197.25;186.63;;;;;;;-1.32;100.00;101269.84;5072715;28;20769;-82
2022/02/13 00:54:12;;;;;;;204.85;193.93;;;;;;;-1.32;100.00;101271.69;5056246;28;20045;-83
2022/02/13 00:56:45;;;;;;;229.10;216.98;;;;;;;-1.33;100.00;101276.19;5066331;28;20053;-83
2022/02/13 00:59:18;;;;;;;203.13;192.27;;;;;;;-1.40;100.00;101276.09;5061116;28;20048;-83
2022/02/13 01:01:46;;;;;;;193.07;182.60;;;;;;;-1.41;100.00;101270.94;5055785;28;20501;-83
2022/02/13 01:04:19;;;;;;;217.80;206.13;;;;;;;-1.40;100.00;101267.25;5063117;28;20061;-82
2022/02/13 01:06:49;;;;;;;226.95;214.75;;;;;;;-1.43;100.00;101259.63;5066933;28;20049;-82
2022/02/13 01:09:17;;;;;;;240.98;228.05;;;;;;;-1.41;100.00;101261.09;5062743;28;20064;-83
2022/02/13 01:11:50;;;;;;;251.23;237.68;;;;;;;-1.48;100.00;101268.19;5065877;28;20493;-83
2022/02/13 01:14:18;;;;;;;266.95;252.48;;;;;;;-1.47;100.00;101258.34;5058286;28;20406;-83
2022/02/13 01:16:51;;;;;;;264.42;250.05;;;;;;;-1.58;100.00;101244.44;5061530;28;20060;-82
2022/02/13 01:19:19;;;;;;;258.63;244.65;;;;;;;-1.52;100.00;101263.41;5061487;28;20482;-82
2022/02/13 01:21:54;;;;;;;290.65;274.83;;;;;;;-1.53;100.00;101249.25;5059724;28;20055;-82
2022/02/13 01:24:22;;;;;;;304.20;287.27;;;;;;;-1.49;100.00;101255.88;5060932;28;20049;-83
2022/02/13 01:26:55;;;;;;;295.58;279.33;;;;;;;-1.61;100.00;101247.50;5066392;28;20048;-83
2022/02/13 01:29:23;;;;;;;294.88;278.75;;;;;;;-1.64;100.00;101239.84;5069692;28;20064;-82
2022/02/13 01:31:52;;;;;;;331.30;312.65;;;;;;;-1.68;100.00;101224.41;5063148;28;20059;-82
2022/02/13 01:34:20;;;;;;;365.33;344.23;;;;;;;-1.66;100.00;101217.84;5068081;28;20487;-82
2022/02/13 01:36:54;;;;;;;410.52;385.67;;;;;;;-1.58;100.00;101232.94;5064152;28;20051;-83
2022/02/13 01:39:28;;;;;;;407.00;382.20;;;;;;;-1.69;100.00;101218.22;5057095;28;20048;-83
2022/02/13 01:42:02;;;;;;;433.92;407.35;;;;;;;-1.70;100.00;101219.22;5055827;28;20063;-82
2022/02/13 01:44:36;;;;;;;435.98;409.17;;;;;;;-1.79;100.00;101215.84;5055769;28;20049;-82
2022/02/13 01:47:09;;;;;;;525.42;492.35;;;;;;;-1.75;100.00;101221.66;5055252;28;20049;-82
2022/02/13 01:49:37;;;;;;;544.38;509.88;;;;;;;-1.82;100.00;101223.38;5057743;28;20056;-82
2022/02/13 01:52:12;;;;;;;615.60;575.63;;;;;;;-1.79;100.00;101217.69;5059159;28;20048;-82
2022/02/13 01:54:45;;;;;;;705.28;658.50;;;;;;;-1.89;100.00;101205.44;5058200;28;20083;-82
2022/02/13 01:57:18;;;;;;;839.50;781.75;;;;;;;-1.78;100.00;101216.66;5061662;28;20083;-83
2022/02/13 01:59:51;;;;;;;901.17;838.08;;;;;;;-1.81;100.00;101214.38;5064266;28;20048;-83
2022/02/13 02:02:25;;;;;;;909.00;844.80;;;;;;;-1.86;100.00;101204.25;5052948;28;20056;-82
2022/02/13 02:04:53;;;;;;;959.95;890.90;;;;;;;-1.85;100.00;101197.91;5058300;28;20068;-82
2022/02/13 02:07:28;;;;;;;1013.33;938.83;;;;;;;-1.80;100.00;101194.69;5054325;28;20053;-82
2022/02/13 02:09:57;;;;;;;1079.45;995.60;;;;;;;-1.86;100.00;101185.59;5059897;28;20052;-82
2022/02/13 02:12:26;;;;;;;1123.82;999.90;;;;;;;-1.86;100.00;101188.25;5059254;28;20548;-83
2022/02/13 02:14:54;;;;;;;1133.32;999.90;;;;;;;-1.82;100.00;101186.03;5057321;28;20048;-82
2022/02/13 02:17:22;;;;;;;1155.43;999.90;;;;;;;-1.83;100.00;101177.19;5062675;28;20044;-82
2022/02/13 02:19:50;;;;;;;1172.38;999.90;;;;;;;-1.80;100.00;101174.16;5058789;28;20053;-82
2022/02/13 02:22:24;;;;;;;1177.30;999.90;;;;;;;-1.81;100.00;101177.00;5056729;28;20049;-82
2022/02/13 02:24:54;;;;;;;1185.13;999.90;;;;;;;-1.92;100.00;101159.63;5054797;28;20497;-83
2022/02/13 02:27:27;;;;;;;1192.10;999.90;;;;;;;-1.75;100.00;101189.63;5058483;28;20056;-83
2022/02/13 02:30:00;;;;;;;1191.75;999.90;;;;;;;-1.80;100.00;101182.16;5070014;28;20052;-82
2022/02/13 02:32:28;;;;;;;1198.57;999.90;;;;;;;-1.76;100.00;101186.13;5061690;28;20045;-83
2022/02/13 02:34:56;;;;;;;1201.45;999.90;;;;;;;-1.92;100.00;101149.81;5060178;28;20056;-82
2022/02/13 02:37:29;;;;;;;1208.68;999.90;;;;;;;-1.78;100.00;101156.13;5068192;28;20407;-82
2022/02/13 02:40:00;;;;;;;1203.88;999.90;;;;;;;-1.80;100.00;101141.31;5062669;28;20049;-83
2022/02/13 02:42:33;;;;;;;1205.70;999.90;;;;;;;-1.80;100.00;101128.81;5057979;28;20067;-82
2022/02/13 02:45:02;;;;;;;1210.13;999.90;;;;;;;-1.82;100.00;101140.66;5059573;28;20087;-82
2022/02/13 02:47:35;;;;;;;1208.90;999.90;;;;;;;-1.85;100.00;101141.91;5055681;28;20057;-82
2022/02/13 02:50:03;;;;;;;1208.00;999.90;;;;;;;-1.88;100.00;101151.09;5062856;28;20381;-83
2022/02/13 02:52:31;;;;;;;1209.20;999.90;;;;;;;-1.91;100.00;101145.28;5058703;28;20040;-83
2022/02/13 02:55:07;;;;;;;1212.78;999.90;;;;;;;-1.87;100.00;101125.22;5060563;28;20436;-82
2022/02/13 02:57:40;;;;;;;1216.03;999.90;;;;;;;-1.90;100.00;101117.59;5057560;28;20041;-82
2022/02/13 03:00:09;;;;;;;1217.22;999.90;;;;;;;-1.91;100.00;101111.44;5060180;28;20064;-82
2022/02/13 03:02:43;;;;;;;1222.88;999.90;;;;;;;-1.87;100.00;101101.22;5058391;28;20044;-83
2022/02/13 03:05:17;;;;;;;1222.55;999.90;;;;;;;-1.91;100.00;101108.75;5063449;28;20063;-82
2022/02/13 03:07:45;;;;;;;1226.72;999.90;;;;;;;-1.90;100.00;101088.25;5055524;28;20049;-82
2022/02/13 03:10:19;;;;;;;1230.72;999.90;;;;;;;-1.89;100.00;101085.41;5060042;28;20057;-82
2022/02/13 03:12:47;;;;;;;1239.10;999.90;;;;;;;-1.93;100.00;101083.31;5061485;28;20052;-82
2022/02/13 03:15:15;;;;;;;1238.75;999.90;;;;;;;-1.94;100.00;101078.97;5055039;28;20829;-82
2022/02/13 03:17:43;;;;;;;1241.88;999.90;;;;;;;-1.98;100.00;101073.19;5056366;28;20064;-82
2022/02/13 03:20:17;;;;;;;1239.78;999.90;;;;;;;-1.96;100.00;101078.31;5058149;28;20048;-82
2022/02/13 03:22:51;;;;;;;1240.65;999.90;;;;;;;-1.97;100.00;101080.19;5061557;28;20047;-82
2022/02/13 03:25:20;;;;;;;1243.38;999.90;;;;;;;-2.01;100.00;101068.22;5057576;28;20052;-82
2022/02/13 03:27:53;;;;;;;1243.35;999.90;;;;;;;-2.02;100.00;101057.75;5059499;28;20056;-82
2022/02/13 03:30:22;;;;;;;1247.80;999.90;;;;;;;-2.03;100.00;101067.59;5055267;28;20044;-82
2022/02/13 03:32:56;;;;;;;1250.82;999.90;;;;;;;-2.00;100.00;101061.88;5065947;28;20052;-82
2022/02/13 03:35:29;;;;;;;1254.90;999.90;;;;;;;-1.98;100.00;101056.38;5058033;28;20053;-82
2022/02/13 03:37:57;;;;;;;1256.35;999.90;;;;;;;-1.92;100.00;101053.78;5065676;28;20516;-81
2022/02/13 03:40:32;;;;;;;1259.38;999.90;;;;;;;-1.99;100.00;101049.38;5064816;28;20070;-82
2022/02/13 03:43:06;;;;;;;1258.38;999.90;;;;;;;-1.95;100.00;101040.78;5064310;28;20052;-82
2022/02/13 03:45:39;;;;;;;1257.97;999.90;;;;;;;-2.02;100.00;101023.91;5052459;28;20151;-82
2022/02/13 03:48:12;;;;;;;1256.47;999.90;;;;;;;-2.09;100.00;101023.81;5075845;28;20048;-82
2022/02/13 03:50:40;;;;;;;1259.78;999.90;;;;;;;-2.06;100.00;101019.94;5054814;28;20048;-82
2022/02/13 03:53:13;;;;;;;1259.53;999.90;;;;;;;-2.11;100.00;101014.38;5069306;28;20067;-82
2022/02/13 03:55:48;;;;;;;1262.95;999.90;;;;;;;-2.08;100.00;101006.81;5063702;28;20045;-82
2022/02/13 03:58:21;;;;;;;1262.75;999.90;;;;;;;-2.10;100.00;101006.19;5061362;28;20053;-82
2022/02/13 04:00:54;;;;;;;1264.32;999.90;;;;;;;-2.14;100.00;101012.91;5068787;28;20048;-82
2022/02/13 04:03:22;;;;;;;1262.97;999.90;;;;;;;-2.12;100.00;101010.03;5080228;28;20052;-83
2022/02/13 04:05:56;;;;;;;1263.30;999.90;;;;;;;-2.09;100.00;101001.66;5060062;28;20049;-82
2022/02/13 04:08:26;;;;;;;1272.43;999.90;;;;;;;-2.11;100.00;100998.38;5065954;28;20463;-82
2022/02/13 04:11:00;;;;;;;1271.80;999.90;;;;;;;-2.22;100.00;101000.50;5059701;28;20048;-82
2022/02/13 04:13:33;;;;;;;1272.63;999.90;;;;;;;-2.15;100.00;100989.91;5054165;28;20048;-81
2022/02/13 04:16:02;;;;;;;1277.70;999.90;;;;;;;-2.10;100.00;101003.50;5061143;28;20061;-82
2022/02/13 04:18:35;;;;;;;1277.65;999.90;;;;;;;-2.13;100.00;101003.06;5062145;28;20484;-82
2022/02/13 04:21:08;;;;;;;1280.90;999.90;;;;;;;-2.11;100.00;100990.38;5059862;28;20490;-81
2022/02/13 04:23:41;;;;;;;1283.80;999.90;;;;;;;-2.12;100.00;100989.53;5059820;28;20052;-82
2022/02/13 04:26:11;;;;;;;1279.88;999.90;;;;;;;-2.17;100.00;100973.25;5061277;28;20057;-82
2022/02/13 04:28:44;;;;;;;1284.93;999.90;;;;;;;-2.14;100.00;100991.56;5054770;28;20048;-82
2022/02/13 04:31:17;;;;;;;1285.07;999.90;;;;;;;-2.11;100.00;100993.84;5065975;28;20417;-82
2022/02/13 04:33:45;;;;;;;1283.75;999.90;;;;;;;-2.12;100.00;101007.38;5064081;28;20060;-82
2022/02/13 04:36:14;;;;;;;1284.45;999.90;;;;;;;-2.17;100.00;101009.78;5061109;28;20061;-82
2022/02/13 04:38:47;;;;;;;1281.53;999.90;;;;;;;-2.17;100.00;101012.44;5070060;28;20049;-82
2022/02/13 04:41:16;;;;;;;1287.18;999.90;;;;;;;-2.13;100.00;101011.06;5055732;28;20049;-81
2022/02/13 04:43:50;;;;;;;1287.18;999.90;;;;;;;-2.12;100.00;101004.72;5059736;28;20040;-82
2022/02/13 04:46:19;;;;;;;1289.78;999.90;;;;;;;-2.16;100.00;100998.09;5061372;28;20057;-82
2022/02/13 04:48:52;;;;;;;1291.45;999.90;;;;;;;-2.05;100.00;100989.59;5068665;28;20252;-82
2022/02/13 04:51:20;;;;;;;1295.07;999.90;;;;;;;-1.99;100.00;100993.34;5064126;28;20063;-82
2022/02/13 04:53:48;;;;;;;1295.50;999.90;;;;;;;-2.01;100.00;100993.53;5060922;28;20060;-82
2022/02/13 04:56:23;;;;;;;1302.05;999.90;;;;;;;-1.90;100.00;100995.72;5059937;28;20429;-82
2022/02/13 04:58:51;;;;;;;1299.40;999.90;;;;;;;-1.93;100.00;100984.63;5059140;28;20061;-82
2022/02/13 05:01:24;;;;;;;1295.57;999.90;;;;;;;-1.94;100.00;100988.28;5076213;28;20421;-82
2022/02/13 05:03:57;;;;;;;1297.93;999.90;;;;;;;-1.91;100.00;100987.91;5067351;28;20493;-82
2022/02/13 05:06:31;;;;;;;1300.13;999.90;;;;;;;-1.84;100.00;100979.97;5062478;28;20421;-81
2022/02/13 05:09:04;;;;;;;1295.50;999.90;;;;;;;-1.93;100.00;100968.59;5052432;28;20056;-82
2022/02/13 05:11:39;;;;;;;1296.35;999.90;;;;;;;-1.90;100.00;100968.22;5068437;28;20056;-81
2022/02/13 05:14:12;;;;;;;1292.88;999.90;;;;;;;-1.93;100.00;100966.75;5055525;28;20040;-82
2022/02/13 05:16:45;;;;;;;1299.38;999.90;;;;;;;-1.91;100.00;100956.72;5062088;28;20501;-81
2022/02/13 05:19:13;;;;;;;1300.22;999.90;;;;;;;-1.91;100.00;100954.03;5072388;28;20052;-81
2022/02/13 05:21:46;;;;;;;1296.82;999.90;;;;;;;-1.89;100.00;100951.22;5068592;28;20044;-82
2022/02/13 05:24:14;;;;;;;1296.53;999.90;;;;;;;-1.95;100.00;100935.94;5068641;28;20501;-83
2022/02/13 05:26:49;;;;;;;1297.30;999.90;;;;;;;-1.93;100.00;100936.59;5057282;28;20049;-82
2022/02/13 05:29:22;;;;;;;1296.53;999.90;;;;;;;-1.93;100.00;100944.59;5058607;28;20060;-81
2022/02/13 05:31:55;;;;;;;1300.38;999.90;;;;;;;-1.92;100.00;100940.91;5060343;28;20437;-82
2022/02/13 05:34:28;;;;;;;1300.35;999.90;;;;;;;-2.02;100.00;100935.88;5065767;28;20047;-82
2022/02/13 05:37:01;;;;;;;1297.70;999.90;;;;;;;-1.98;100.00;100942.47;5063332;28;20069;-82
2022/02/13 05:39:29;;;;;;;1296.63;999.90;;;;;;;-1.92;100.00;100938.22;5061830;28;20052;-82
2022/02/13 05:42:05;;;;;;;1297.13;999.90;;;;;;;-1.90;100.00;100934.34;5066818;28;20499;-82
2022/02/13 05:44:39;;;;;;;1297.38;999.90;;;;;;;-1.89;100.00;100941.34;5065190;28;20041;-82
2022/02/13 05:47:07;;;;;;;1296.30;999.90;;;;;;;-1.91;100.00;100954.03;5060891;28;20055;-82
2022/02/13 05:49:40;;;;;;;1292.07;999.90;;;;;;;-2.01;100.00;100937.53;5049006;28;20052;-81
2022/02/13 05:52:14;;;;;;;1289.35;999.90;;;;;;;-1.97;100.00;100948.66;5056057;28;20049;-82
2022/02/13 05:54:47;;;;;;;1291.93;999.90;;;;;;;-1.98;100.00;100955.00;5058721;28;20064;-82
2022/02/13 05:57:21;;;;;;;1295.88;999.90;;;;;;;-1.90;100.00;100949.53;5057933;28;20056;-82
2022/02/13 05:59:54;;;;;;;1297.50;999.90;;;;;;;-1.98;100.00;100941.66;5063703;28;20064;-82
2022/02/13 06:02:27;;;;;;;1292.10;999.90;;;;;;;-2.05;100.00;100944.25;5069790;28;20056;-82
2022/02/13 06:05:01;;;;;;;1290.25;999.90;;;;;;;-1.98;100.00;100952.34;5069871;28;20048;-81
2022/02/13 06:07:37;;;;;;;1288.35;999.90;;;;;;;-2.00;100.00;100938.34;5061517;28;20516;-81
2022/02/13 06:10:11;;;;;;;1294.45;999.90;;;;;;;-2.07;100.00;100943.66;5054652;28;20053;-82
2022/02/13 06:12:46;;;;;;;1294.20;999.90;;;;;;;-1.99;100.00;100948.00;5061294;28;20456;-82
2022/02/13 06:15:19;;;;;;;1291.68;999.90;;;;;;;-2.03;100.00;100936.91;5072859;28;20056;-81
2022/02/13 06:17:52;;;;;;;1292.47;999.90;;;;;;;-2.05;100.00;100929.06;5061235;28;20052;-82
2022/02/13 06:20:20;;;;;;;1293.30;999.90;;;;;;;-2.05;100.00;100929.06;5059147;28;20055;-82
2022/02/13 06:22:54;;;;;;;1296.00;999.90;;;;;;;-2.08;100.00;100921.47;5057570;28;20383;-81
2022/02/13 06:25:27;;;;;;;1295.40;999.90;;;;;;;-2.01;100.00;100916.19;5065337;28;20503;-82
2022/02/13 06:28:01;;;;;;;1297.97;999.90;;;;;;;-1.96;100.00;100913.78;5064446;28;20049;-81
2022/02/13 06:30:29;;;;;;;1299.63;999.90;;;;;;;-1.94;100.00;100901.06;5062457;28;20041;-81
2022/02/13 06:33:03;;;;;;;1297.35;999.90;;;;;;;-1.97;100.00;100906.81;5058967;28;20076;-81
2022/02/13 06:35:33;;;;;;;1295.88;999.90;;;;;;;-1.91;100.00;100923.88;5053503;28;20155;-81
2022/02/13 06:38:11;;;;;;;1297.25;999.90;;;;;;;-1.93;100.00;100920.59;5055391;28;20064;-81
2022/02/13 06:40:44;;;;;;;;;;;;;;;-1.90;100.00;100922.88;5055793;28;20053;-82
2022/02/13 06:43:18;;;;;;;1302.78;999.90;;;;;;;-1.92;100.00;100912.41;5060147;28;19924;-81
2022/02/13 06:45:46;;;;;;;1300.60;999.90;;;;;;;-1.86;100.00;100917.97;5063285;28;20076;-81
2022/02/13 06:48:19;;;;;;;1296.18;999.90;;;;;;;-1.80;100.00;100911.88;5059417;28;20049;-81
2022/02/13 06:50:52;;;;;;;1296.50;999.90;;;;;;;-1.71;100.00;100913.41;5067673;28;20040;-81
2022/02/13 06:53:25;;;;;;;1292.75;999.90;;;;;;;-1.68;100.00;100905.00;5066159;28;20444;-82
2022/02/13 06:55:58;;;;;;;1287.82;999.90;;;;;;;-1.72;100.00;100914.41;5063289;28;20385;-82
2022/02/13 06:58:33;;;;;;;1286.47;999.90;;;;;;;-1.69;100.00;100921.22;5059144;28;20059;-82
2022/02/13 07:01:08;;;;;;;1288.85;999.90;;;;;;;-1.65;100.00;100923.28;5055147;28;20044;-81
2022/02/13 07:03:42;;;;;;;1286.57;999.90;;;;;;;-1.58;100.00;100932.16;5054607;28;20052;-82
2022/02/13 07:06:15;;;;;;;1279.40;999.90;;;;;;;-1.58;100.00;100932.16;5055037;28;20459;-82
2022/02/13 07:08:49;;;;;;;1278.25;999.90;;;;;;;-1.51;100.00;100931.41;5064949;28;20056;-82
2022/02/13 07:11:22;;;;;;;1275.25;999.90;;;;;;;-1.46;100.00;100912.97;5058304;28;20429;-81
2022/02/13 07:13:56;;;;;;;1267.20;999.90;;;;;;;-1.45;100.00;100915.44;5061460;28;20056;-81
2022/02/13 07:16:29;;;;;;;1264.15;999.90;;;;;;;-1.38;100.00;100918.16;5058153;28;20405;-82
2022/02/13 07:19:03;;;;;;;1263.07;999.90;;;;;;;-1.29;100.00;100919.66;5058190;28;20409;-82
2022/02/13 07:21:36;;;;;;;1266.38;999.90;;;;;;;-1.31;100.00;100920.84;5053611;28;20417;-82
2022/02/13 07:24:09;;;;;;;1261.45;999.90;;;;;;;-1.27;100.00;100919.44;5065299;28;20427;-82
2022/02/13 07:26:42;;;;;;;1251.22;999.90;;;;;;;-1.28;100.00;100915.16;5058547;28;20047;-82
2022/02/13 07:29:12;;;;;;;1243.18;999.90;;;;;;;-1.23;100.00;100921.53;5066875;28;20083;-81
2022/02/13 07:31:45;;;;;;;1238.80;999.90;;;;;;;-1.16;100.00;100916.25;5068119;28;20049;-82
2022/02/13 07:34:18;;;;;;;1232.72;999.90;;;;;;;-1.22;100.00;100909.00;5063679;28;20079;-81
2022/02/13 07:36:51;;;;;;;1220.82;999.90;;;;;;;-1.22;100.00;100906.34;5059523;28;20551;-82
2022/02/13 07:39:24;;;;;;;1227.75;999.90;;;;;;;-1.21;100.00;100903.47;5064719;28;20051;-82
2022/02/13 07:41:58;;;;;;;1220.07;999.90;;;;;;;-1.15;100.00;100904.53;5062613;28;20405;-81
2022/02/13 07:44:33;;;;;;;1217.90;999.90;;;;;;;-1.10;100.00;100919.97;5062065;28;20412;-82
2022/02/13 07:47:06;;;;;;;1212.32;999.90;;;;;;;-1.14;100.00;100900.84;5061518;28;20498;-81
2022/02/13 07:49:39;;;;;;;1207.72;999.90;;;;;;;-1.12;100.00;100914.84;5065187;28;20044;-81
2022/02/13 07:52:08;;;;;;;1173.35;999.90;;;;;;;-1.12;100.00;100922.84;5059357;28;20496;-82
2022/02/13 07:54:41;;;;;;;1184.57;999.90;;;;;;;-1.01;100.00;100909.94;5071971;28;20060;-82
2022/02/13 07:57:14;;;;;;;1176.80;999.90;;;;;;;-1.02;100.00;100909.13;5065514;28;20059;-81
2022/02/13 07:59:44;;;;;;;1149.55;999.90;;;;;;;-1.08;100.00;100896.56;5060074;28;20068;-82
2022/02/13 08:02:17;;;;;;;1091.68;999.90;;;;;;;-0.98;100.00;100904.22;5061285;28;20052;-82
2022/02/13 08:04:50;;;;;;;1057.55;978.80;;;;;;;-0.94;100.00;100900.13;5062785;28;20049;-81
2022/02/13 08:07:23;;;;;;;931.85;866.10;;;;;;;-0.98;100.00;100898.88;5067863;28;20397;-82
2022/02/13 08:09:56;;;;;;;586.83;549.30;;;;;;;-0.98;100.00;100878.34;5060881;28;20084;-81
2022/02/13 08:12:30;;;;;;;768.38;716.55;;;;;;;-0.88;100.00;100897.47;5064978;28;20052;-82
2022/02/13 08:15:05;;;;;;;759.63;708.78;;;;;;;-0.88;100.00;100894.00;5061639;28;20520;-82
2022/02/13 08:17:38;;;;;;;575.65;538.97;;;;;;;-0.83;100.00;100896.88;5059737;28;20337;-81
2022/02/13 08:20:14;;;;;;;434.00;407.30;;;;;;;-0.82;100.00;100900.38;5057004;28;20405;-82
2022/02/13 08:22:47;;;;;;;333.60;314.63;;;;;;;-0.87;100.00;100893.78;5063343;28;20067;-83
2022/02/13 08:25:15;;;;;;;327.52;309.20;;;;;;;-0.76;100.00;100892.41;5076089;28;20047;-82
2022/02/13 08:27:44;;;;;;;244.35;231.15;;;;;;;-0.76;100.00;100895.06;5065371;28;20053;-82
2022/02/13 08:30:13;;;;;;;255.05;241.43;;;;;;;-0.77;100.00;100890.75;5052632;28;20055;-82
2022/02/13 08:32:47;;;;;;;252.98;239.38;;;;;;;-0.69;100.00;100885.22;5055496;28;20056;-82
2022/02/13 08:35:21;;;;;;;245.05;231.93;;;;;;;-0.65;100.00;100899.00;5053075;28;20049;-82
2022/02/13 08:37:54;;;;;;;173.60;164.23;;;;;;;-0.64;100.00;100892.63;5054717;28;20412;-82
2022/02/13 08:40:23;;;;;;;173.70;164.32;;;;;;;-0.54;100.00;100893.09;5066380;28;20049;-81
2022/02/13 08:42:57;;;;;;;153.82;145.73;;;;;;;-0.54;100.00;100890.44;5051372;28;20413;-82
2022/02/13 08:45:33;;;;;;;156.88;148.60;;;;;;;-0.50;100.00;100882.00;5061263;28;20047;-81
2022/02/13 08:48:07;;;;;;;119.72;113.47;;;;;;;-0.46;100.00;100870.69;5060248;28;20048;-82
2022/02/13 08:50:35;;;;;;;113.55;107.65;;;;;;;-0.33;100.00;100869.06;5066880;28;20051;-81
2022/02/13 08:53:08;;;;;;;96.55;91.47;;;;;;;-0.20;100.00;100856.53;5064565;28;20059;-82
2022/02/13 08:55:41;;;;;;;74.05;70.10;;;;;;;-0.09;100.00;100847.09;5059360;28;20049;-82
2022/02/13 08:58:10;;;;;;;69.15;65.45;;;;;;;-0.05;100.00;100844.84;5057763;28;20049;-80
2022/02/13 09:00:44;;;;;;;59.47;56.28;;;;;;;0.05;100.00;100834.53;5055374;28;20048;-82
2022/02/13 09:03:12;;;;;;;59.15;55.97;;;;;;;0.05;100.00;100842.56;5057886;28;20052;-82
2022/02/13 09:05:45;;;;;;;54.10;51.20;;;;;;;0.07;100.00;100820.94;5059073;28;20053;-81
2022/02/13 09:08:18;;;;;;;47.22;44.72;;;;;;;0.18;100.00;100817.66;5056472;28;20049;-81
2022/02/13 09:10:51;;;;;;;44.88;42.47;;;;;;;0.32;100.00;100819.28;5055020;28;20057;-82
2022/02/13 09:13:24;;;;;;;36.85;34.85;;;;;;;0.38;100.00;100814.13;5056123;28;20512;-82
2022/02/13 09:15:59;;;;;;;34.75;32.85;;;;;;;0.44;100.00;100819.47;5061842;28;20055;-82
2022/02/13 09:18:32;;;;;;;25.73;24.33;;;;;;;0.49;100.00;100808.13;5060761;28;20548;-82
2022/02/13 09:21:06;;;;;;;24.15;22.75;;;;;;;0.55;100.00;100790.41;5058033;28;20491;-81
2022/02/13 09:23:39;;;;;;;19.85;18.70;;;;;;;0.56;100.00;100782.16;5060529;28;20075;-82
2022/02/13 09:26:12;;;;;;;17.38;16.38;;;;;;;0.73;100.00;100792.41;5062810;28;20374;-81
2022/02/13 09:28:45;;;;;;;14.23;13.32;;;;;;;0.80;100.00;100783.31;5061361;28;20049;-81
2022/02/13 09:31:20;;;;;;;16.23;15.23;;;;;;;0.83;100.00;100774.84;5059609;28;20052;-81
2022/02/13 09:33:53;;;;;;;12.55;11.75;;;;;;;0.93;100.00;100782.44;5054001;28;20485;-81
2022/02/13 09:36:26;;;;;;;9.32;8.73;;;;;;;1.01;100.00;100778.69;5054574;28;20049;-84
2022/02/13 09:38:55;;;;;;;8.68;8.07;;;;;;;1.06;100.00;100784.22;5051557;28;20049;-83
2022/02/13 09:41:28;;;;;;;6.50;6.00;;;;;;;1.17;100.00;100778.19;5081263;28;20433;-82
2022/02/13 09:44:01;;;;;;;6.88;6.38;;;;;;;1.26;100.00;100778.75;5067479;28;20052;-82
2022/02/13 09:46:31;;;;;;;6.57;6.07;;;;;;;1.31;100.00;100770.88;5063190;28;20056;-83
2022/02/13 09:49:01;;;;;;;4.78;4.47;;;;;;;1.42;100.00;100769.34;5053675;28;20041;-82
2022/02/13 09:51:34;;;;;;;4.93;4.63;;;;;;;1.41;100.00;100750.81;5061204;28;20060;-82
2022/02/13 09:54:08;;;;;;;5.43;5.03;;;;;;;1.48;100.00;100754.28;5060546;28;20712;-83
2022/02/13 09:56:41;;;;;;;4.22;3.92;;;;;;;1.50;100.00;100742.28;5059147;28;20055;-81
2022/02/13 09:59:15;;;;;;;3.15;2.95;;;;;;;1.69;100.00;100743.16;5054042;28;20037;-82
2022/02/13 10:01:49;;;;;;;2.90;2.70;;;;;;;1.73;100.00;100737.34;5052002;28;20048;-83
2022/02/13 10:04:42;;;;;;;2.95;2.75;;;;;;;1.77;100.00;100725.97;5057275;28;20053;-83
2022/02/13 10:07:16;;;;;;;2.63;2.47;;;;;;;1.79;100.00;100712.34;5061280;28;20049;-82
2022/02/13 10:09:58;;;;;;;2.03;1.92;;;;;;;1.92;100.00;100725.63;5056322;28;20394;-82
2022/02/13 10:12:38;;;;;;;1.83;1.73;;;;;;;1.94;100.00;100718.16;5062386;28;20040;-82
2022/02/13 10:15:29;;;;;;;1.90;1.80;;;;;;;2.02;100.00;100731.31;5059690;28;20071;-83
2022/02/13 10:18:06;;;;;;;1.80;1.70;;;;;;;2.03;100.00;100721.38;5056395;28;20052;-84
2022/02/13 10:20:36;;;;;;;1.80;1.70;;;;;;;2.14;100.00;100730.56;5063189;28;20048;-82
2022/02/13 10:23:11;;;;;;;1.67;1.58;;;;;;;2.10;100.00;100727.53;5061750;28;20064;-84
2022/02/13 10:25:44;;;;;;;1.67;1.58;;;;;;;2.22;100.00;100743.69;5061404;28;20049;-84
2022/02/13 10:28:14;;;;;;;1.63;1.52;;;;;;;2.25;100.00;100735.22;5055093;28;20401;-83
2022/02/13 10:30:49;;;;;;;1.10;1.10;;;;;;;2.20;100.00;100719.75;5055459;28;20048;-83
2022/02/13 10:33:26;;;;;;;1.30;1.30;;;;;;;2.37;100.00;100744.16;5062559;28;20076;-84
2022/02/13 10:36:13;;;;;;;1.20;1.20;;;;;;;2.43;100.00;100717.44;5052759;28;20059;-83
2022/02/13 10:38:46;;;;;;;1.27;1.27;;;;;;;2.49;100.00;100736.19;5058652;28;20040;-84
2022/02/13 10:41:20;;;;;;;1.00;1.00;;;;;;;2.49;100.00;100736.19;5062394;28;20480;-83
2022/02/13 10:43:54;;;;;;;1.10;1.10;;;;;;;2.57;100.00;100727.00;5064107;28;20044;-83
2022/02/13 10:46:30;;;;;;;1.15;1.15;;;;;;;2.67;100.00;100729.97;5056494;28;20413;-83
2022/02/13 10:49:06;;;;;;;0.90;0.90;;;;;;;2.61;100.00;100717.44;5055184;28;20044;-83
2022/02/13 10:51:39;;;;;;;0.80;0.80;;;;;;;2.72;100.00;100711.31;5068525;28;20060;-83
2022/02/13 10:54:13;;;;;;;0.70;0.70;;;;;;;2.74;100.00;100702.19;5056916;28;20519;-83
2022/02/13 10:56:46;;;;;;;0.90;0.90;;;;;;;2.87;100.00;100707.38;5057392;28;20048;-84
2022/02/13 10:59:15;;;;;;;0.80;0.80;;;;;;;2.94;100.00;100699.22;5059694;28;20517;-83
2022/02/13 11:01:50;;;;;;;0.70;0.70;;;;;;;2.94;100.00;100700.06;5055445;28;20052;-83
2022/02/13 11:04:27;;;;;;;0.60;0.60;;;;;;;3.07;100.00;100712.50;5060027;28;20528;-84
2022/02/13 11:07:00;;;;;;;0.63;0.63;;;;;;;3.14;100.00;100702.44;5064152;28;20048;-82
2022/02/13 11:09:31;;;;;;;0.70;0.70;;;;;;;3.15;100.00;100711.31;5058970;28;20059;-83
2022/02/13 11:12:05;;;;;;;0.60;0.60;;;;;;;3.24;100.00;100699.19;5056556;28;20051;-83